Time;durP1;ratioP1;P1;durP2;ratioP2;P2;SDS_P1;SDS_P2;PMS_P1;PMS_P2;Temp;Humidity;BMP_temperature;BMP_pressure;BME280_temperature;BME280_humidity;BME280_pressure;Samples;Min_cycle;Max_cycle;Signal;HPM_P1;HPM_P2
2020/12/30 00:00:09;;;;;;;8.48;6.03;;;;;;;0.75;85.16;94762.69;5073306;28;20056;-79
2020/12/30 00:02:35;;;;;;;9.45;6.00;;;;;;;0.79;85.45;94769.03;5073250;28;20411;-79
2020/12/30 00:05:07;;;;;;;9.02;6.60;;;;;;;0.77;85.28;94765.88;5073068;28;20044;-79
2020/12/30 00:07:37;;;;;;;11.27;6.90;;;;;;;0.76;85.08;94770.25;5072661;28;20468;-79
2020/12/30 00:10:05;;;;;;;9.63;6.47;;;;;;;0.74;85.19;94771.44;5073510;28;20047;-79
2020/12/30 00:12:33;;;;;;;11.25;7.22;;;;;;;0.75;85.20;94783.34;5071303;28;20040;-79
2020/12/30 00:14:59;;;;;;;8.40;6.50;;;;;;;0.73;85.41;94772.41;5073115;28;20484;-79
2020/12/30 00:17:27;;;;;;;10.57;6.60;;;;;;;0.75;85.42;94778.97;5071869;28;20048;-79
2020/12/30 00:19:53;;;;;;;9.32;6.60;;;;;;;0.77;85.36;94776.97;5073010;28;20063;-79
2020/12/30 00:22:20;;;;;;;10.07;6.35;;;;;;;0.78;85.37;94782.94;5073001;28;20052;-79
2020/12/30 00:24:46;;;;;;;11.23;6.78;;;;;;;0.80;85.55;94778.38;5055574;28;20044;-79
2020/12/30 00:27:13;;;;;;;9.18;7.13;;;;;;;0.83;85.50;94779.78;5073047;28;20416;-79
2020/12/30 00:29:39;;;;;;;10.70;7.35;;;;;;;0.84;85.60;94782.16;5072116;28;20056;-79
2020/12/30 00:32:10;;;;;;;10.23;7.40;;;;;;;0.84;85.43;94774.44;5071418;28;20055;-79
2020/12/30 00:34:40;;;;;;;10.85;7.10;;;;;;;0.85;85.50;94781.16;5073323;28;20036;-79
2020/12/30 00:37:06;;;;;;;10.23;7.28;;;;;;;0.85;85.47;94778.56;5072067;28;20039;-79
2020/12/30 00:39:32;;;;;;;11.25;7.05;;;;;;;0.87;85.59;94783.53;5055389;28;20049;-79
2020/12/30 00:41:59;;;;;;;9.63;7.15;;;;;;;0.86;85.59;94787.09;5054542;28;20040;-79
2020/12/30 00:44:25;;;;;;;9.13;7.00;;;;;;;0.88;85.56;94787.69;5073251;28;20044;-79
2020/12/30 00:46:55;;;;;;;11.80;6.97;;;;;;;0.87;85.37;94789.50;5072873;28;20049;-79
2020/12/30 00:49:22;;;;;;;10.82;7.03;;;;;;;0.86;85.36;94790.50;5072102;28;20033;-79
2020/12/30 00:51:53;;;;;;;14.05;8.45;;;;;;;0.84;85.45;94800.22;5071825;28;20049;-79
2020/12/30 00:54:19;;;;;;;15.23;8.43;;;;;;;0.84;85.49;94802.81;5072617;28;20048;-79
2020/12/30 00:56:47;;;;;;;10.90;7.22;;;;;;;0.84;85.57;94794.25;5073058;28;20035;-79
2020/12/30 00:59:17;;;;;;;9.40;6.93;;;;;;;0.86;85.65;94795.66;5071192;28;20052;-80
2020/12/30 01:01:44;;;;;;;8.95;6.18;;;;;;;0.86;85.41;94805.97;5056133;28;20044;-79
2020/12/30 01:04:11;;;;;;;10.35;7.72;;;;;;;0.87;85.72;94804.19;5072485;28;20048;-79
2020/12/30 01:06:37;;;;;;;11.82;7.78;;;;;;;0.87;85.59;94811.94;5071676;28;20056;-79
2020/12/30 01:09:05;;;;;;;9.85;7.22;;;;;;;0.83;85.80;94814.09;5073067;28;20496;-79
2020/12/30 01:11:32;;;;;;;12.55;7.40;;;;;;;0.83;85.79;94810.75;5072614;28;20048;-79
2020/12/30 01:14:00;;;;;;;10.65;7.47;;;;;;;0.84;85.73;94810.53;5072814;28;20161;-79
2020/12/30 01:16:26;;;;;;;10.10;6.90;;;;;;;0.85;85.83;94816.50;5071187;28;20052;-79
2020/12/30 01:18:53;;;;;;;9.88;7.25;;;;;;;0.85;86.01;94814.69;5072432;28;20052;-79
2020/12/30 01:21:19;;;;;;;10.57;7.20;;;;;;;0.84;85.91;94818.28;5071258;28;20053;-79
2020/12/30 01:23:46;;;;;;;10.05;7.07;;;;;;;0.83;86.05;94821.84;5072786;28;20052;-79
2020/12/30 01:26:12;;;;;;;9.00;6.38;;;;;;;0.84;86.07;94828.59;5071498;28;20040;-79
2020/12/30 01:28:39;;;;;;;10.27;6.72;;;;;;;0.88;86.06;94827.19;5072408;28;20119;-79
2020/12/30 01:31:05;;;;;;;10.43;7.80;;;;;;;0.92;86.07;94820.66;5072240;28;20044;-79
2020/12/30 01:33:32;;;;;;;9.82;7.03;;;;;;;0.93;86.07;94821.47;5071305;28;20465;-79
2020/12/30 01:35:58;;;;;;;9.55;6.53;;;;;;;0.95;86.24;94825.44;5072387;28;20055;-79
2020/12/30 01:38:24;;;;;;;10.50;7.10;;;;;;;0.96;86.02;94837.31;5071147;28;20408;-79
2020/12/30 01:40:54;;;;;;;10.98;7.25;;;;;;;0.94;85.92;94831.56;5072598;28;20388;-79
2020/12/30 01:43:21;;;;;;;10.75;6.95;;;;;;;0.94;86.00;94826.41;5075847;28;20055;-79
2020/12/30 01:45:53;;;;;;;11.73;7.05;;;;;;;0.96;86.22;94836.53;5075524;28;20041;-79
2020/12/30 01:48:23;;;;;;;11.80;7.38;;;;;;;0.94;85.85;94836.72;5074776;28;20052;-79
2020/12/30 01:50:50;;;;;;;10.40;7.05;;;;;;;0.93;85.70;94834.38;5074415;28;20048;-79
2020/12/30 01:53:18;;;;;;;10.43;7.43;;;;;;;0.91;85.99;94831.97;5074610;28;20048;-79
2020/12/30 01:55:44;;;;;;;10.77;6.75;;;;;;;0.90;85.93;94835.53;5075362;28;20036;-79
2020/12/30 01:58:11;;;;;;;10.27;7.00;;;;;;;0.91;86.09;94838.94;5075987;28;20048;-79
2020/12/30 02:00:40;;;;;;;11.13;7.43;;;;;;;0.89;86.12;94841.69;5075749;28;20045;-79
2020/12/30 02:03:07;;;;;;;11.48;7.68;;;;;;;0.89;86.14;94841.69;5076361;28;20045;-79
2020/12/30 02:05:35;;;;;;;11.45;6.55;;;;;;;0.92;86.03;94849.03;5075639;28;20042;-79
2020/12/30 02:08:05;;;;;;;13.25;6.78;;;;;;;0.94;86.21;94852.22;5057517;28;20048;-79
2020/12/30 02:10:32;;;;;;;9.75;6.50;;;;;;;0.96;86.48;94845.06;5075526;28;20472;-79
2020/12/30 02:12:58;;;;;;;9.30;6.68;;;;;;;1.01;86.21;94849.66;5074065;28;20511;-79
2020/12/30 02:15:33;;;;;;;8.65;6.65;;;;;;;1.00;86.12;94856.59;5073524;28;20047;-79
2020/12/30 02:17:59;;;;;;;;;;;;;;;0.99;86.12;94849.06;5075957;28;20420;-79
2020/12/30 02:20:30;;;;;;;11.85;6.93;;;;;;;0.99;85.93;94851.66;5075594;28;19917;-79
2020/12/30 02:23:08;;;;;;;10.18;6.40;;;;;;;1.01;86.05;94854.84;5074447;28;20044;-79
2020/12/30 02:25:35;;;;;;;10.55;6.75;;;;;;;0.99;86.00;94852.44;5075689;28;20048;-79
2020/12/30 02:28:01;;;;;;;9.27;6.50;;;;;;;0.99;85.89;94849.84;5074177;28;20416;-79
2020/12/30 02:30:27;;;;;;;9.15;6.22;;;;;;;1.02;85.98;94857.19;5074120;28;20032;-79
2020/12/30 02:32:53;;;;;;;9.13;6.22;;;;;;;1.02;85.98;94852.03;5057393;28;20392;-79
2020/12/30 02:35:23;;;;;;;8.57;6.00;;;;;;;1.03;85.81;94858.00;5073799;28;20049;-79
2020/12/30 02:37:50;;;;;;;10.32;6.55;;;;;;;1.04;85.77;94863.97;5065479;28;20534;-80
2020/12/30 02:40:17;;;;;;;7.65;5.55;;;;;;;1.06;85.82;94864.56;5073905;28;20041;-79
2020/12/30 02:42:44;;;;;;;10.70;6.43;;;;;;;1.05;85.92;94861.19;5075450;28;20484;-79
2020/12/30 02:45:10;;;;;;;8.60;6.32;;;;;;;1.00;85.77;94858.38;5075062;28;20053;-79
2020/12/30 02:47:37;;;;;;;7.30;5.90;;;;;;;0.97;85.63;94851.84;5074604;28;20495;-79
2020/12/30 02:50:05;;;;;;;10.57;5.93;;;;;;;0.98;85.70;94850.03;5057104;28;20036;-79
2020/12/30 02:52:31;;;;;;;9.50;5.50;;;;;;;0.97;85.82;94849.25;5073184;28;20045;-79
2020/12/30 02:54:58;;;;;;;8.30;6.63;;;;;;;0.96;85.79;94847.66;5073222;28;20400;-79
2020/12/30 02:57:24;;;;;;;10.50;5.07;;;;;;;0.95;85.85;94853.81;5074012;28;20036;-79
2020/12/30 02:59:55;;;;;;;9.98;5.82;;;;;;;0.94;85.59;94856.59;5073513;28;20408;-79
2020/12/30 03:02:25;;;;;;;7.85;5.95;;;;;;;0.89;85.45;94867.50;5057684;28;20477;-79
2020/12/30 03:04:55;;;;;;;9.23;5.45;;;;;;;0.85;85.57;94868.88;5074576;28;20055;-79
2020/12/30 03:07:21;;;;;;;9.35;5.90;;;;;;;0.84;85.53;94866.50;5074528;28;20056;-79
2020/12/30 03:09:48;;;;;;;9.95;5.43;;;;;;;0.83;85.67;94870.09;5073037;28;20107;-79
2020/12/30 03:12:14;;;;;;;7.68;5.15;;;;;;;0.81;85.64;94865.91;5074174;28;20045;-79
2020/12/30 03:14:41;;;;;;;7.70;5.00;;;;;;;0.80;85.59;94879.00;5074170;28;20063;-79
2020/12/30 03:17:07;;;;;;;8.55;6.22;;;;;;;0.77;85.67;94877.59;5074899;28;20047;-79
2020/12/30 03:19:33;;;;;;;9.68;5.82;;;;;;;0.74;85.75;94877.22;5056718;28;20052;-79
2020/12/30 03:21:59;;;;;;;7.88;5.40;;;;;;;0.73;85.80;94878.19;5056015;28;20061;-79
2020/12/30 03:24:26;;;;;;;10.18;5.68;;;;;;;0.74;85.99;94877.22;5073894;28;20045;-79
2020/12/30 03:26:52;;;;;;;9.48;5.95;;;;;;;0.76;86.06;94882.97;5055758;28;20443;-79
2020/12/30 03:29:18;;;;;;;9.25;5.68;;;;;;;0.74;85.92;94882.38;5072491;28;20040;-79
2020/12/30 03:31:44;;;;;;;9.05;6.40;;;;;;;0.72;85.88;94874.81;5056609;28;20045;-80
2020/12/30 03:34:10;;;;;;;11.00;5.90;;;;;;;0.68;85.66;94880.56;5074206;28;20049;-79
2020/12/30 03:36:37;;;;;;;9.82;5.20;;;;;;;0.67;85.79;94879.75;5056069;28;20036;-79
2020/12/30 03:39:04;;;;;;;8.38;5.72;;;;;;;0.64;85.96;94880.16;5074330;28;20396;-79
2020/12/30 03:41:30;;;;;;;8.98;5.55;;;;;;;0.64;85.95;94880.16;5072776;28;20480;-79
2020/12/30 03:43:57;;;;;;;10.45;5.45;;;;;;;0.64;85.84;94869.06;5073755;28;20036;-79
2020/12/30 03:46:23;;;;;;;9.32;5.53;;;;;;;0.59;85.75;94878.16;5074003;28;20037;-79
2020/12/30 03:48:50;;;;;;;12.35;7.82;;;;;;;0.56;85.86;94875.16;5073444;28;20508;-79
2020/12/30 03:51:16;;;;;;;11.95;7.72;;;;;;;0.54;86.04;94875.34;5072178;28;20048;-79
2020/12/30 03:53:42;;;;;;;9.60;6.00;;;;;;;0.54;85.96;94879.72;5055639;28;20059;-79
2020/12/30 03:56:08;;;;;;;11.95;6.82;;;;;;;0.54;86.09;94870.19;5073299;28;20053;-80
2020/12/30 03:58:34;;;;;;;8.77;5.95;;;;;;;0.54;86.02;94872.78;5055967;28;20041;-79
2020/12/30 04:01:00;;;;;;;7.53;5.68;;;;;;;0.58;86.06;94879.13;5072282;28;20040;-79
2020/12/30 04:03:27;;;;;;;10.75;5.88;;;;;;;0.58;86.00;94883.50;5072058;28;20040;-79
2020/12/30 04:05:53;;;;;;;10.15;6.07;;;;;;;0.58;86.04;94886.09;5072223;28;20056;-79
2020/12/30 04:08:19;;;;;;;8.75;5.97;;;;;;;0.56;85.84;94891.44;5073083;28;20048;-79
2020/12/30 04:10:45;;;;;;;9.38;6.32;;;;;;;0.53;85.84;94880.72;5039284;28;20372;-79
2020/12/30 04:13:12;;;;;;;8.02;5.95;;;;;;;0.53;85.73;94891.84;5072164;28;20036;-80
2020/12/30 04:15:38;;;;;;;13.07;9.57;;;;;;;0.47;85.70;94891.81;5073289;28;20053;-79
2020/12/30 04:18:04;;;;;;;9.93;6.20;;;;;;;0.44;85.82;94890.41;5072060;28;20067;-79
2020/12/30 04:20:30;;;;;;;9.23;6.28;;;;;;;0.46;86.06;94903.88;5071616;28;20048;-79
2020/12/30 04:22:57;;;;;;;9.18;6.47;;;;;;;0.46;86.03;94898.72;5073061;28;20401;-79
2020/12/30 04:25:23;;;;;;;10.35;6.80;;;;;;;0.47;86.06;94902.13;5072673;28;20059;-79
2020/12/30 04:27:49;;;;;;;19.40;11.90;;;;;;;0.44;85.95;94908.44;5071597;28;20396;-79
2020/12/30 04:30:15;;;;;;;12.82;8.02;;;;;;;0.46;86.13;94910.84;5072919;28;20049;-79
2020/12/30 04:32:42;;;;;;;9.98;6.65;;;;;;;0.45;86.00;94922.94;5073017;28;20045;-79
2020/12/30 04:35:08;;;;;;;11.38;6.45;;;;;;;0.42;85.92;94915.59;5071785;28;20052;-79
2020/12/30 04:37:34;;;;;;;10.02;7.05;;;;;;;0.42;86.21;94912.22;5073107;28;20071;-79
2020/12/30 04:40:00;;;;;;;9.70;6.53;;;;;;;0.42;85.99;94925.09;5071977;28;20041;-79
2020/12/30 04:42:36;;;;;;;9.82;5.75;;;;;;;0.43;85.98;94931.88;5071442;28;20044;-79
2020/12/30 04:45:09;;;;;;;9.65;6.22;;;;;;;0.41;86.04;94934.63;5064673;28;20051;-79
2020/12/30 04:47:36;;;;;;;12.10;6.15;;;;;;;0.40;85.84;94930.47;5073322;28;20044;-79
2020/12/30 04:50:04;;;;;;;12.90;7.25;;;;;;;0.40;86.03;94925.31;5073384;28;20044;-79
2020/12/30 04:52:31;;;;;;;11.07;7.75;;;;;;;0.42;86.05;94936.25;5072853;28;20392;-79
2020/12/30 04:54:59;;;;;;;11.23;6.50;;;;;;;0.42;86.07;94933.66;5071497;28;20044;-79
2020/12/30 04:57:59;;;;;;;10.85;6.75;;;;;;;0.44;85.81;94925.72;5071462;28;20033;-79
2020/12/30 05:00:25;;;;;;;9.45;5.95;;;;;;;0.42;85.69;94938.81;5055067;28;20024;-79
2020/12/30 05:02:53;;;;;;;12.57;7.18;;;;;;;0.45;85.99;94933.25;5072938;28;20063;-79
2020/12/30 05:05:20;;;;;;;11.35;7.22;;;;;;;0.47;85.97;94933.06;5072214;28;20048;-79
2020/12/30 05:07:46;;;;;;;11.50;7.22;;;;;;;0.50;86.11;94937.84;5072831;28;20495;-79
2020/12/30 05:10:15;;;;;;;10.23;6.40;;;;;;;0.50;85.89;94937.84;5072852;28;20049;-79
2020/12/30 05:12:43;;;;;;;10.95;6.47;;;;;;;0.48;85.63;94932.06;5073176;28;20435;-79
2020/12/30 05:15:09;;;;;;;12.73;6.10;;;;;;;0.47;85.84;94923.56;5072397;28;20048;-79
2020/12/30 05:17:35;;;;;;;11.38;6.50;;;;;;;0.46;85.57;94923.72;5058504;28;20166;-79
2020/12/30 05:20:07;;;;;;;18.15;9.55;;;;;;;0.46;85.65;94928.88;5074958;28;20396;-79
2020/12/30 05:22:34;;;;;;;11.88;7.70;;;;;;;0.44;85.61;94931.66;5076501;28;20043;-79
2020/12/30 05:25:04;;;;;;;11.80;7.85;;;;;;;0.45;85.71;94937.63;5075628;28;20032;-79
2020/12/30 05:27:31;;;;;;;10.75;7.10;;;;;;;0.48;85.77;94943.19;5076386;28;20059;-79
2020/12/30 05:29:58;;;;;;;10.00;6.30;;;;;;;0.50;85.81;94945.56;5075214;28;20500;-79
2020/12/30 05:32:25;;;;;;;7.97;5.43;;;;;;;0.51;85.34;94950.53;5058634;28;20373;-79
2020/12/30 05:34:53;;;;;;;11.85;6.82;;;;;;;0.52;85.37;94949.53;5058426;28;20047;-79
2020/12/30 05:37:29;;;;;;;9.57;7.00;;;;;;;0.49;85.30;94946.56;5075824;28;20060;-79
2020/12/30 05:39:55;;;;;;;24.38;15.35;;;;;;;0.51;85.53;94963.44;5075431;28;20036;-79
2020/12/30 05:42:22;;;;;;;14.32;8.40;;;;;;;0.48;85.36;94961.22;5075841;28;20408;-79
2020/12/30 05:44:50;;;;;;;11.23;6.65;;;;;;;0.44;85.22;94959.22;5057949;28;20040;-79
2020/12/30 05:47:16;;;;;;;11.63;7.30;;;;;;;0.42;85.27;94964.59;5075551;28;20055;-79
2020/12/30 05:49:48;;;;;;;11.32;8.65;;;;;;;0.40;85.34;94961.41;5074601;28;20047;-79
2020/12/30 05:52:17;;;;;;;16.00;10.88;;;;;;;0.35;85.30;94968.91;5074623;28;20036;-79
2020/12/30 05:54:57;;;;;;;16.30;8.75;;;;;;;0.33;85.44;94966.50;5074728;28;20032;-79
2020/12/30 05:57:36;;;;;;;16.50;10.32;;;;;;;0.35;85.54;94971.50;5075520;28;20473;-79
2020/12/30 06:00:08;;;;;;;9.93;7.05;;;;;;;0.32;85.41;94974.47;5075519;28;20055;-79
2020/12/30 06:02:45;;;;;;;10.38;6.80;;;;;;;0.29;85.58;94974.81;5076225;28;20123;-79
2020/12/30 06:05:19;;;;;;;9.70;7.00;;;;;;;0.24;85.47;94988.28;5075603;28;20048;-79
2020/12/30 06:07:49;;;;;;;12.10;7.75;;;;;;;0.24;85.62;94987.50;5075813;28;20040;-79
2020/12/30 06:10:20;;;;;;;11.65;7.40;;;;;;;0.25;85.75;94994.22;5074211;28;20036;-79
2020/12/30 06:12:58;;;;;;;9.57;6.60;;;;;;;0.27;85.89;95007.72;5074514;28;20060;-79
2020/12/30 06:15:26;;;;;;;14.23;8.40;;;;;;;0.26;85.64;94996.63;5075809;28;20397;-79
2020/12/30 06:18:01;;;;;;;11.70;7.72;;;;;;;0.30;85.90;95004.78;5075195;28;20056;-79
2020/12/30 06:20:32;;;;;;;13.05;8.05;;;;;;;0.31;85.84;95006.38;5075434;28;20040;-79
2020/12/30 06:23:04;;;;;;;11.90;7.97;;;;;;;0.32;85.72;95008.75;5075369;28;20173;-79
2020/12/30 06:25:32;;;;;;;13.75;7.60;;;;;;;0.33;85.73;95012.94;5075520;28;20049;-79
2020/12/30 06:28:12;;;;;;;10.35;7.05;;;;;;;0.35;85.97;95020.47;5073023;28;20044;-79
2020/12/30 06:30:39;;;;;;;11.23;7.18;;;;;;;0.37;85.75;95015.94;5074835;28;20095;-79
2020/12/30 06:33:06;;;;;;;11.77;7.47;;;;;;;0.40;85.67;95021.50;5075431;28;20040;-79
2020/12/30 06:35:35;;;;;;;12.60;7.38;;;;;;;0.42;85.79;95023.09;5074374;28;20107;-79
2020/12/30 06:38:30;;;;;;;10.13;7.35;;;;;;;0.44;85.61;95027.06;5057224;28;20381;-79
2020/12/30 06:40:59;;;;;;;;;;;;;;;0.44;85.14;95027.06;5061923;28;20043;-79
2020/12/30 06:43:48;;;;;;;14.73;7.78;;;;;;;0.42;85.18;95030.81;5074106;28;19916;-79
2020/12/30 06:46:33;;;;;;;13.98;7.93;;;;;;;0.36;85.28;95033.19;5074175;28;20570;-79
2020/12/30 06:49:00;;;;;;;16.25;7.57;;;;;;;0.34;85.41;95035.16;5074763;28;20045;-79
2020/12/30 06:51:27;;;;;;;12.35;7.45;;;;;;;0.32;85.38;95037.13;5074660;28;20044;-79
2020/12/30 06:53:55;;;;;;;12.65;6.78;;;;;;;0.31;85.24;95040.69;5074772;28;20487;-79
2020/12/30 06:56:38;;;;;;;10.48;6.95;;;;;;;0.31;85.29;95047.63;5056248;28;20052;-79
2020/12/30 06:59:06;;;;;;;11.10;7.20;;;;;;;0.32;85.36;95044.06;5073387;28;20052;-79
2020/12/30 07:02:00;;;;;;;13.73;7.05;;;;;;;0.31;85.35;95048.41;5075166;28;20032;-78
2020/12/30 07:04:29;;;;;;;11.50;7.05;;;;;;;0.28;85.18;95056.53;5074553;28;20472;-79
2020/12/30 07:06:55;;;;;;;12.10;7.35;;;;;;;0.24;85.18;95063.06;5072976;28;20041;-79
2020/12/30 07:09:33;;;;;;;13.65;7.60;;;;;;;0.19;84.94;95055.88;5074215;28;20049;-79
2020/12/30 07:12:06;;;;;;;13.27;8.48;;;;;;;0.16;85.21;95066.56;5075023;28;20051;-79
2020/12/30 07:14:34;;;;;;;12.07;7.63;;;;;;;0.14;85.37;95065.16;5073894;28;20044;-79
2020/12/30 07:17:08;;;;;;;13.02;8.13;;;;;;;0.16;85.51;95073.50;5074009;28;20041;-79
2020/12/30 07:19:38;;;;;;;12.32;8.40;;;;;;;0.16;85.46;95065.75;5074118;28;20048;-79
2020/12/30 07:22:09;;;;;;;12.30;8.18;;;;;;;0.16;85.30;95068.34;5074341;28;20063;-79
2020/12/30 07:24:53;;;;;;;11.02;7.20;;;;;;;0.17;85.50;95068.16;5074368;28;20044;-79
2020/12/30 07:27:21;;;;;;;13.07;8.20;;;;;;;0.20;85.48;95070.34;5074183;28;20048;-79
2020/12/30 07:29:49;;;;;;;12.98;7.95;;;;;;;0.24;85.57;95086.25;5044984;28;20047;-79
2020/12/30 07:32:16;;;;;;;12.15;8.15;;;;;;;0.25;85.40;95090.41;5074039;28;20404;-79
2020/12/30 07:34:44;;;;;;;12.63;8.80;;;;;;;0.29;85.46;95099.38;5072616;28;20044;-79
2020/12/30 07:37:13;;;;;;;12.63;8.68;;;;;;;0.31;85.38;95101.78;5073587;28;20059;-79
2020/12/30 07:39:42;;;;;;;14.48;8.85;;;;;;;0.32;85.25;95098.22;5073355;28;20037;-79
2020/12/30 07:42:23;;;;;;;15.20;8.07;;;;;;;0.35;85.20;95106.34;5056688;28;20039;-79
2020/12/30 07:44:50;;;;;;;12.82;8.68;;;;;;;0.39;85.27;95102.41;5072621;28;20044;-79
2020/12/30 07:47:18;;;;;;;14.18;9.50;;;;;;;0.41;85.14;95112.56;5073486;28;20040;-79
2020/12/30 07:49:44;;;;;;;19.48;11.52;;;;;;;0.43;85.01;95110.59;5055489;28;20045;-79
2020/12/30 07:52:10;;;;;;;20.58;13.60;;;;;;;0.48;84.95;95108.22;5073524;28;20037;-79
2020/12/30 07:54:37;;;;;;;37.17;24.65;;;;;;;0.51;84.87;95118.19;5073511;28;20063;-79
2020/12/30 07:57:05;;;;;;;19.08;11.43;;;;;;;0.50;84.79;95126.91;5073676;28;20045;-79
2020/12/30 07:59:33;;;;;;;17.00;11.07;;;;;;;0.56;84.93;95127.94;5073616;28;20123;-79
2020/12/30 08:02:00;;;;;;;26.25;17.48;;;;;;;0.68;84.85;95133.38;5073495;28;20068;-79
2020/12/30 08:04:28;;;;;;;35.85;22.63;;;;;;;0.82;84.71;95132.50;5073037;28;20048;-79
2020/12/30 08:06:55;;;;;;;28.67;17.83;;;;;;;1.06;84.74;95138.19;5073373;28;20052;-77
2020/12/30 08:09:27;;;;;;;15.30;9.35;;;;;;;1.25;83.51;95144.44;5054882;28;20051;-77
2020/12/30 08:11:58;;;;;;;13.82;8.45;;;;;;;1.48;83.86;95139.75;5073278;28;20047;-77
2020/12/30 08:14:29;;;;;;;13.27;8.30;;;;;;;1.70;83.27;95145.63;5071979;28;20043;-77
2020/12/30 08:17:07;;;;;;;14.05;8.70;;;;;;;1.74;82.15;95135.66;5072003;28;20412;-77
2020/12/30 08:19:42;;;;;;;10.63;7.63;;;;;;;1.87;82.88;95142.66;5073571;28;20431;-77
2020/12/30 08:22:12;;;;;;;10.48;7.60;;;;;;;1.99;82.31;95135.91;5073965;28;20048;-77
2020/12/30 08:24:52;;;;;;;12.05;8.65;;;;;;;2.03;82.11;95139.72;5073674;28;20048;-77
2020/12/30 08:27:21;;;;;;;13.55;8.02;;;;;;;1.87;81.65;95143.47;5073571;28;20043;-77
2020/12/30 08:29:48;;;;;;;11.13;7.35;;;;;;;1.62;81.66;95151.75;5072600;28;20060;-77
2020/12/30 08:32:43;;;;;;;10.52;7.05;;;;;;;1.43;80.92;95152.47;5071003;28;20041;-77
2020/12/30 08:35:18;;;;;;;11.27;7.40;;;;;;;1.31;82.19;95143.66;5071706;28;20040;-77
2020/12/30 08:37:46;;;;;;;11.35;7.85;;;;;;;1.20;82.04;95147.59;5073018;28;20020;-77
2020/12/30 08:40:17;;;;;;;10.52;7.25;;;;;;;1.11;82.30;95159.84;5071833;28;20032;-77
2020/12/30 08:42:52;;;;;;;11.98;7.20;;;;;;;1.04;81.91;95161.59;5071437;28;20051;-77
2020/12/30 08:45:31;;;;;;;9.65;8.10;;;;;;;0.89;81.83;95158.34;5073179;28;20056;-77
2020/12/30 08:47:59;;;;;;;13.30;7.90;;;;;;;0.86;82.71;95159.53;5055171;28;20037;-77
2020/12/30 08:50:27;;;;;;;10.63;7.82;;;;;;;0.84;83.04;95171.00;5072244;28;20044;-77
2020/12/30 08:52:56;;;;;;;10.07;7.22;;;;;;;0.87;83.29;95174.00;5072903;28;20067;-77
2020/12/30 08:55:23;;;;;;;12.02;7.45;;;;;;;0.91;83.38;95161.53;5071262;28;20044;-77
2020/12/30 08:57:49;;;;;;;20.42;14.98;;;;;;;0.91;83.24;95164.09;5070989;28;20473;-77
2020/12/30 09:00:20;;;;;;;23.65;16.33;;;;;;;0.92;83.47;95165.69;5072652;28;20048;-77
2020/12/30 09:02:48;;;;;;;13.68;9.00;;;;;;;0.96;83.43;95159.94;5071489;28;20504;-77
2020/12/30 09:05:31;;;;;;;10.85;7.45;;;;;;;1.00;83.35;95156.00;5072642;28;20064;-77
2020/12/30 09:08:14;;;;;;;29.90;17.48;;;;;;;1.03;82.95;95157.44;5072049;28;20055;-77
2020/12/30 09:10:41;;;;;;;17.25;11.05;;;;;;;1.05;83.24;95168.38;5072503;28;20048;-77
2020/12/30 09:13:19;;;;;;;11.75;7.50;;;;;;;1.07;83.18;95170.75;5070983;28;20067;-77
2020/12/30 09:15:57;;;;;;;16.60;10.80;;;;;;;1.09;82.93;95168.75;5072666;28;20045;-77
2020/12/30 09:18:28;;;;;;;16.67;9.80;;;;;;;1.10;83.12;95175.53;5072676;28;20045;-77
2020/12/30 09:20:54;;;;;;;15.93;10.40;;;;;;;1.08;83.13;95173.13;5072707;28;20054;-77
2020/12/30 09:23:21;;;;;;;22.80;13.10;;;;;;;1.09;82.93;95171.34;5072680;28;20032;-77
2020/12/30 09:25:48;;;;;;;15.90;9.98;;;;;;;1.01;82.72;95180.84;5071147;28;20139;-78
2020/12/30 09:28:20;;;;;;;12.23;7.88;;;;;;;0.92;82.46;95184.53;5054676;28;20055;-77
2020/12/30 09:30:52;;;;;;;51.63;26.75;;;;;;;0.90;82.90;95183.16;5072922;28;20048;-78
2020/12/30 09:33:26;;;;;;;16.08;10.52;;;;;;;0.93;83.16;95182.78;5072519;28;20037;-77
2020/12/30 09:35:53;;;;;;;12.88;8.00;;;;;;;0.93;82.90;95188.75;5072659;28;20049;-78
2020/12/30 09:38:24;;;;;;;80.28;37.63;;;;;;;0.92;82.94;95186.34;5071064;28;20063;-78
2020/12/30 09:40:53;;;;;;;30.23;16.17;;;;;;;0.94;83.10;95194.69;5072294;28;20053;-78
2020/12/30 09:43:21;;;;;;;32.20;16.40;;;;;;;1.00;83.01;95188.78;5073033;28;20056;-77
2020/12/30 09:45:49;;;;;;;32.92;18.23;;;;;;;1.01;82.93;95198.13;5071099;28;20044;-77
2020/12/30 09:48:16;;;;;;;21.15;12.63;;;;;;;1.08;83.04;95193.00;5070815;28;20047;-77
2020/12/30 09:50:44;;;;;;;10.70;7.80;;;;;;;1.12;83.00;95199.38;5071179;28;20033;-78
2020/12/30 09:53:11;;;;;;;9.25;5.70;;;;;;;1.17;83.06;95195.22;5071499;28;20385;-77
2020/12/30 09:55:37;;;;;;;7.57;4.95;;;;;;;1.25;83.06;95196.88;5054529;28;20055;-78
2020/12/30 09:58:04;;;;;;;8.20;5.28;;;;;;;1.34;83.08;95203.47;5072418;28;20052;-78
2020/12/30 10:00:31;;;;;;;8.95;5.80;;;;;;;1.43;82.90;95198.97;5054073;28;20405;-78
2020/12/30 10:02:57;;;;;;;10.13;6.28;;;;;;;1.49;82.70;95203.38;5074172;28;20063;-77
2020/12/30 10:05:23;;;;;;;9.73;5.95;;;;;;;1.51;82.42;95203.16;5075711;28;20484;-78
2020/12/30 10:07:49;;;;;;;9.40;5.97;;;;;;;1.53;82.25;95211.50;5074306;28;20492;-78
2020/12/30 10:10:16;;;;;;;10.02;6.68;;;;;;;1.49;82.14;95208.53;5041412;28;20036;-78
2020/12/30 10:12:42;;;;;;;8.10;5.82;;;;;;;1.47;82.47;95207.09;5075786;28;20051;-78
2020/12/30 10:15:10;;;;;;;12.55;6.13;;;;;;;1.44;82.57;95210.09;5025074;28;20408;-78
2020/12/30 10:17:37;;;;;;;10.38;6.18;;;;;;;1.44;82.53;95212.66;5073626;28;20052;-78
2020/12/30 10:20:07;;;;;;;7.97;5.53;;;;;;;1.49;82.80;95218.06;5058040;28;20051;-78
2020/12/30 10:22:33;;;;;;;9.10;5.97;;;;;;;1.52;82.64;95209.94;5075816;28;20055;-78
2020/12/30 10:25:00;;;;;;;8.65;5.30;;;;;;;1.56;82.34;95218.91;5073473;28;20473;-78
2020/12/30 10:27:27;;;;;;;10.18;5.28;;;;;;;1.60;82.84;95214.94;5073878;28;20072;-78
2020/12/30 10:29:53;;;;;;;10.15;6.18;;;;;;;1.64;82.56;95208.41;5074071;28;20057;-78
2020/12/30 10:32:19;;;;;;;9.80;5.00;;;;;;;1.67;82.31;95213.16;5075498;28;20051;-78
2020/12/30 10:34:46;;;;;;;9.23;5.53;;;;;;;1.71;82.16;95216.19;5057468;28;20037;-78
2020/12/30 10:37:12;;;;;;;11.43;6.25;;;;;;;1.78;82.66;95211.81;5074418;28;20404;-79
2020/12/30 10:39:38;;;;;;;8.75;5.38;;;;;;;1.90;82.38;95212.06;5056957;28;20045;-78
2020/12/30 10:42:04;;;;;;;9.88;5.38;;;;;;;1.98;82.41;95220.44;5057335;28;20392;-77
2020/12/30 10:44:31;;;;;;;9.75;6.05;;;;;;;2.02;81.54;95213.91;5057027;28;20060;-77
2020/12/30 10:46:57;;;;;;;12.10;8.27;;;;;;;2.01;81.56;95219.25;5072997;28;20059;-77
2020/12/30 10:49:24;;;;;;;11.52;7.05;;;;;;;2.01;81.74;95225.22;5073645;28;20048;-78
2020/12/30 10:51:50;;;;;;;11.57;7.78;;;;;;;2.03;82.14;95219.88;5075374;28;20044;-77
2020/12/30 10:54:17;;;;;;;13.55;7.30;;;;;;;2.03;81.88;95223.25;5056979;28;20067;-77
2020/12/30 10:56:47;;;;;;;9.77;5.50;;;;;;;2.06;81.54;95222.06;5060573;28;20052;-77
2020/12/30 10:59:14;;;;;;;7.88;5.63;;;;;;;2.07;81.53;95225.44;5073193;28;20064;-77
2020/12/30 11:01:41;;;;;;;12.05;5.60;;;;;;;2.05;81.39;95232.59;5041010;28;20037;-77
2020/12/30 11:04:07;;;;;;;8.40;5.75;;;;;;;2.05;81.46;95233.41;5056945;28;20036;-77
2020/12/30 11:06:33;;;;;;;9.45;4.57;;;;;;;2.07;81.53;95225.44;5072911;28;20044;-77
2020/12/30 11:08:59;;;;;;;9.38;4.53;;;;;;;2.11;81.54;95237.78;5056584;28;20503;-78
2020/12/30 11:11:26;;;;;;;10.00;5.80;;;;;;;2.09;81.37;95231.22;5056457;28;20127;-77
2020/12/30 11:13:52;;;;;;;12.32;6.90;;;;;;;2.07;81.28;95228.81;5055806;28;20495;-78
2020/12/30 11:16:18;;;;;;;10.18;5.15;;;;;;;1.99;80.85;95226.41;5056693;28;20412;-77
2020/12/30 11:18:45;;;;;;;8.65;5.30;;;;;;;1.96;80.99;95230.19;5056769;28;20052;-77
2020/12/30 11:21:11;;;;;;;7.90;5.38;;;;;;;1.95;80.83;95233.78;5073036;28;20040;-77
2020/12/30 11:23:37;;;;;;;8.27;4.85;;;;;;;1.96;80.99;95232.78;5073948;28;20052;-78
2020/12/30 11:26:05;;;;;;;10.95;5.00;;;;;;;1.94;81.01;95228.78;5073381;28;20566;-77
2020/12/30 11:28:32;;;;;;;7.05;4.47;;;;;;;1.97;81.12;95239.53;5073961;28;20040;-78
2020/12/30 11:30:58;;;;;;;8.77;4.85;;;;;;;2.01;81.24;95237.34;5073143;28;20037;-78
2020/12/30 11:33:25;;;;;;;8.15;4.80;;;;;;;1.99;80.94;95231.59;5073289;28;20049;-78
2020/12/30 11:35:51;;;;;;;6.60;4.50;;;;;;;2.02;80.77;95228.63;5055799;28;20036;-78
2020/12/30 11:38:17;;;;;;;11.00;4.57;;;;;;;1.95;80.47;95226.03;5074410;28;20036;-78
2020/12/30 11:40:43;;;;;;;9.13;4.75;;;;;;;1.96;80.90;95226.81;5072835;28;20032;-78
2020/12/30 11:43:10;;;;;;;7.93;4.50;;;;;;;2.05;81.25;95230.03;5072434;28;20052;-78